Time,TemperatureF,DewpointF,PressureIn,WindDirection,WindDirectionDegrees,WindSpeedMPH,WindSpeedGustMPH,Humidity,HourlyPrecipIn,Conditions,Clouds,dailyrainin,SolarRadiationWatts/m^2,SoftwareType,DateUTC
2013-05-26 00:02:00,53.0,45.0,-100.00,ESE,113,3.0,8.0,73,0.00,,,0.02,0.000000,,2013-05-26 05:02:00,
2013-05-26 00:32:00,52.0,44.0,-100.00,SE,133,3.0,11.0,74,0.00,,,0.01,0.000000,,2013-05-26 05:32:00,
2013-05-26 00:42:00,52.0,44.0,-100.00,SE,133,3.0,11.0,74,0.00,,,0.01,0.000000,,2013-05-26 05:42:00,
2013-05-26 00:52:00,52.0,44.0,-100.00,SE,133,3.0,11.0,74,0.00,,,0.01,0.000000,,2013-05-26 05:52:00,
2013-05-26 01:01:00,52.0,44.0,-100.00,SE,133,3.0,11.0,74,0.00,,,0.01,0.000000,,2013-05-26 06:01:00,
2013-05-26 01:32:00,50.0,43.0,-100.00,East,96,3.0,7.0,78,0.00,,,0.01,0.000000,,2013-05-26 06:32:00,
2013-05-26 01:42:00,50.0,43.0,-100.00,East,96,3.0,7.0,78,0.00,,,0.01,0.000000,,2013-05-26 06:42:00,
2013-05-26 01:52:00,50.0,43.0,-100.00,East,96,3.0,7.0,78,0.00,,,0.01,0.000000,,2013-05-26 06:52:00,
2013-05-26 02:01:00,50.0,43.0,-100.00,East,96,3.0,7.0,78,0.00,,,0.01,0.000000,,2013-05-26 07:01:00,
2013-05-26 02:32:00,50.0,43.0,-100.00,East,88,3.0,7.0,77,0.00,,,0.01,0.000000,,2013-05-26 07:32:00,
2013-05-26 02:42:00,50.0,43.0,-100.00,East,88,3.0,7.0,77,0.00,,,0.01,0.000000,,2013-05-26 07:42:00,
2013-05-26 02:52:00,50.0,43.0,-100.00,East,88,3.0,7.0,77,0.00,,,0.01,0.000000,,2013-05-26 07:52:00,
2013-05-26 03:01:00,50.0,43.0,-100.00,East,88,3.0,7.0,77,0.00,,,0.01,0.000000,,2013-05-26 08:01:00,
2013-05-26 03:32:00,50.0,43.0,-100.00,East,90,3.0,8.0,76,0.00,,,0.00,0.000000,,2013-05-26 08:32:00,
2013-05-26 03:42:00,50.0,43.0,-100.00,East,90,3.0,8.0,76,0.00,,,0.00,0.000000,,2013-05-26 08:42:00,
2013-05-26 03:53:00,50.0,43.0,-100.00,East,90,3.0,8.0,76,0.00,,,0.00,0.000000,,2013-05-26 08:53:00,
2013-05-26 04:01:00,50.0,43.0,-100.00,East,90,3.0,8.0,76,0.00,,,0.00,0.000000,,2013-05-26 09:01:00,
2013-05-26 04:34:00,49.0,41.0,-100.00,ENE,75,5.0,8.0,75,0.00,,,0.00,0.000000,,2013-05-26 09:34:00,
2013-05-26 04:43:00,49.0,41.0,-100.00,ENE,75,5.0,8.0,75,0.00,,,0.00,0.000000,,2013-05-26 09:43:00,
2013-05-26 04:53:00,49.0,41.0,-100.00,ENE,75,5.0,8.0,75,0.00,,,0.00,0.000000,,2013-05-26 09:53:00,
2013-05-26 05:02:00,49.0,41.0,-100.00,ENE,75,5.0,8.0,75,0.00,,,0.00,0.000000,,2013-05-26 10:02:00,
2013-05-26 05:33:00,49.0,41.0,-100.00,ESE,104,5.0,9.0,75,0.00,,,0.00,0.000000,,2013-05-26 10:33:00,
2013-05-26 05:42:00,49.0,41.0,-100.00,ESE,104,5.0,9.0,75,0.00,,,0.00,0.000000,,2013-05-26 10:42:00,
2013-05-26 05:52:00,49.0,41.0,-100.00,ESE,104,5.0,9.0,75,0.00,,,0.00,0.000000,,2013-05-26 10:52:00,
2013-05-26 06:03:00,49.0,41.0,-100.00,ESE,104,5.0,9.0,75,0.00,,,0.00,0.000000,,2013-05-26 11:03:00,
2013-05-26 06:32:00,48.0,39.0,-100.00,SE,124,5.0,12.0,72,0.00,,,0.00,8.000000,,2013-05-26 11:32:00,
2013-05-26 06:42:00,48.0,39.0,-100.00,SE,124,5.0,12.0,72,0.00,,,0.00,8.000000,,2013-05-26 11:42:00,
2013-05-26 06:52:00,48.0,39.0,-100.00,SE,124,5.0,12.0,72,0.00,,,0.00,8.000000,,2013-05-26 11:52:00,
2013-05-26 07:02:00,48.0,39.0,-100.00,SE,124,5.0,12.0,72,0.00,,,0.00,8.000000,,2013-05-26 12:02:00,
2013-05-26 07:32:00,49.0,39.0,-100.00,SE,128,5.0,12.0,69,0.00,,,0.00,76.000000,,2013-05-26 12:32:00,
2013-05-26 07:42:00,49.0,39.0,-100.00,SE,128,5.0,12.0,69,0.00,,,0.00,76.000000,,2013-05-26 12:42:00,
2013-05-26 07:52:00,49.0,39.0,-100.00,SE,128,5.0,12.0,69,0.00,,,0.00,76.000000,,2013-05-26 12:52:00,
2013-05-26 08:02:00,49.0,39.0,-100.00,SE,128,5.0,12.0,69,0.00,,,0.00,76.000000,,2013-05-26 13:02:00,
2013-05-26 08:32:00,51.0,40.0,-100.00,SE,126,5.0,13.0,65,0.00,,,0.00,191.000000,,2013-05-26 13:32:00,
2013-05-26 08:42:00,51.0,40.0,-100.00,SE,126,5.0,13.0,65,0.00,,,0.00,191.000000,,2013-05-26 13:42:00,
2013-05-26 08:52:00,51.0,40.0,-100.00,SE,126,5.0,13.0,65,0.00,,,0.00,191.000000,,2013-05-26 13:52:00,
2013-05-26 09:02:00,51.0,40.0,-100.00,SE,126,5.0,13.0,65,0.00,,,0.00,191.000000,,2013-05-26 14:02:00,
2013-05-26 09:32:00,56.0,39.0,-100.00,SE,124,7.0,15.0,52,0.00,,,0.00,377.000000,,2013-05-26 14:32:00,
2013-05-26 09:42:00,56.0,39.0,-100.00,SE,124,7.0,15.0,52,0.00,,,0.00,377.000000,,2013-05-26 14:42:00,
2013-05-26 09:52:00,56.0,39.0,-100.00,SE,124,7.0,15.0,52,0.00,,,0.00,377.000000,,2013-05-26 14:52:00,
2013-05-26 10:01:00,56.0,39.0,-100.00,SE,124,7.0,15.0,52,0.00,,,0.00,377.000000,,2013-05-26 15:01:00,
2013-05-26 10:33:00,59.0,37.0,-100.00,SE,133,7.0,16.0,43,0.00,,,0.00,586.000000,,2013-05-26 15:33:00,
2013-05-26 10:43:00,59.0,37.0,-100.00,SE,133,7.0,16.0,43,0.00,,,0.00,586.000000,,2013-05-26 15:43:00,
2013-05-26 10:53:00,59.0,37.0,-100.00,SE,133,7.0,16.0,43,0.00,,,0.00,586.000000,,2013-05-26 15:53:00,
2013-05-26 11:03:00,59.0,37.0,-100.00,SE,133,7.0,16.0,43,0.00,,,0.00,586.000000,,2013-05-26 16:03:00,
2013-05-26 11:33:00,59.0,35.0,-100.00,SSE,156,7.0,17.0,41,0.00,,,0.00,427.000000,,2013-05-26 16:33:00,
2013-05-26 11:42:00,59.0,35.0,-100.00,SSE,156,7.0,17.0,41,0.00,,,0.00,427.000000,,2013-05-26 16:42:00,
2013-05-26 11:53:00,59.0,35.0,-100.00,SSE,156,7.0,17.0,41,0.00,,,0.00,427.000000,,2013-05-26 16:53:00,
2013-05-26 12:02:00,59.0,35.0,-100.00,SSE,156,7.0,17.0,41,0.00,,,0.00,427.000000,,2013-05-26 17:02:00,
2013-05-26 12:32:00,62.0,35.0,-100.00,SSE,149,12.0,24.0,36,0.00,,,0.00,692.000000,,2013-05-26 17:32:00,
2013-05-26 12:42:00,62.0,35.0,-100.00,SSE,149,12.0,24.0,36,0.00,,,0.00,692.000000,,2013-05-26 17:42:00,
2013-05-26 12:52:00,62.0,35.0,-100.00,SSE,149,12.0,24.0,36,0.00,,,0.00,692.000000,,2013-05-26 17:52:00,
2013-05-26 13:01:00,62.0,35.0,-100.00,SSE,149,12.0,24.0,36,0.00,,,0.00,692.000000,,2013-05-26 18:01:00,
2013-05-26 13:32:00,64.0,35.0,-100.00,SE,139,11.0,22.0,34,0.00,,,0.00,1016.000000,,2013-05-26 18:32:00,
2013-05-26 13:42:00,64.0,35.0,-100.00,SE,139,11.0,22.0,34,0.00,,,0.00,1016.000000,,2013-05-26 18:42:00,
2013-05-26 13:52:00,64.0,35.0,-100.00,SE,139,11.0,22.0,34,0.00,,,0.00,1016.000000,,2013-05-26 18:52:00,
2013-05-26 14:01:00,64.0,35.0,-100.00,SE,139,11.0,22.0,34,0.00,,,0.00,1016.000000,,2013-05-26 19:01:00,
2013-05-26 14:32:00,64.0,36.0,-100.00,SSE,162,10.0,22.0,35,0.00,,,0.00,591.000000,,2013-05-26 19:32:00,
2013-05-26 14:42:00,64.0,36.0,-100.00,SSE,162,10.0,22.0,35,0.00,,,0.00,591.000000,,2013-05-26 19:42:00,
2013-05-26 14:52:00,64.0,36.0,-100.00,SSE,162,10.0,22.0,35,0.00,,,0.00,591.000000,,2013-05-26 19:52:00,
2013-05-26 15:02:00,64.0,36.0,-100.00,SSE,162,10.0,22.0,35,0.00,,,0.00,591.000000,,2013-05-26 20:02:00,
2013-05-26 15:32:00,67.0,37.0,-100.00,SSE,154,10.0,18.0,33,0.00,,,0.00,635.000000,,2013-05-26 20:32:00,
2013-05-26 15:42:00,67.0,37.0,-100.00,SSE,154,10.0,18.0,33,0.00,,,0.00,635.000000,,2013-05-26 20:42:00,
2013-05-26 15:52:00,67.0,37.0,-100.00,SSE,154,10.0,18.0,33,0.00,,,0.00,635.000000,,2013-05-26 20:52:00,
2013-05-26 16:02:00,67.0,37.0,-100.00,SSE,154,10.0,18.0,33,0.00,,,0.00,635.000000,,2013-05-26 21:02:00,
2013-05-26 16:33:00,66.0,36.0,-100.00,SE,133,7.0,21.0,33,0.00,,,0.00,685.000000,,2013-05-26 21:33:00,
2013-05-26 16:43:00,66.0,36.0,-100.00,SE,133,7.0,21.0,33,0.00,,,0.00,685.000000,,2013-05-26 21:43:00,
2013-05-26 16:53:00,66.0,36.0,-100.00,SE,133,7.0,21.0,33,0.00,,,0.00,685.000000,,2013-05-26 21:53:00,
2013-05-26 17:02:00,66.0,36.0,-100.00,SE,133,7.0,21.0,33,0.00,,,0.00,685.000000,,2013-05-26 22:02:00,
2013-05-26 17:33:00,65.0,36.0,-100.00,SSE,150,9.0,18.0,34,0.00,,,0.00,268.000000,,2013-05-26 22:33:00,
2013-05-26 17:42:00,65.0,36.0,-100.00,SSE,150,9.0,18.0,34,0.00,,,0.00,268.000000,,2013-05-26 22:42:00,
2013-05-26 17:53:00,65.0,36.0,-100.00,SSE,150,9.0,18.0,34,0.00,,,0.00,268.000000,,2013-05-26 22:53:00,
2013-05-26 18:02:00,65.0,36.0,-100.00,SSE,150,9.0,18.0,34,0.00,,,0.00,268.000000,,2013-05-26 23:02:00,
2013-05-26 18:32:00,61.0,38.0,-100.00,South,181,5.0,13.0,42,0.00,,,0.00,70.000000,,2013-05-26 23:32:00,
2013-05-26 18:43:00,61.0,38.0,-100.00,South,181,5.0,13.0,42,0.00,,,0.00,70.000000,,2013-05-26 23:43:00,
2013-05-26 18:52:00,61.0,38.0,-100.00,South,181,5.0,13.0,42,0.00,,,0.00,70.000000,,2013-05-26 23:52:00,
2013-05-26 19:02:00,61.0,38.0,-100.00,South,181,5.0,13.0,42,0.00,,,0.00,70.000000,,2013-05-27 00:02:00,
2013-05-26 19:32:00,59.0,39.0,-100.00,SE,146,3.0,12.0,48,0.00,,,0.00,50.000000,,2013-05-27 00:32:00,
2013-05-26 19:42:00,59.0,39.0,-100.00,SE,146,3.0,12.0,48,0.00,,,0.00,50.000000,,2013-05-27 00:42:00,
2013-05-26 19:52:00,59.0,39.0,-100.00,SE,146,3.0,12.0,48,0.00,,,0.00,50.000000,,2013-05-27 00:52:00,
2013-05-26 20:01:00,59.0,39.0,-100.00,SE,146,3.0,12.0,48,0.00,,,0.00,50.000000,,2013-05-27 01:01:00,
2013-05-26 20:32:00,58.0,39.0,-100.00,South,174,7.0,11.0,50,0.00,,,0.00,27.000000,,2013-05-27 01:32:00,
2013-05-26 20:42:00,58.0,39.0,-100.00,South,174,7.0,11.0,50,0.00,,,0.00,27.000000,,2013-05-27 01:42:00,
2013-05-26 20:52:00,58.0,39.0,-100.00,South,174,7.0,11.0,50,0.00,,,0.00,27.000000,,2013-05-27 01:52:00,
2013-05-26 21:01:00,58.0,39.0,-100.00,South,174,7.0,11.0,50,0.00,,,0.00,27.000000,,2013-05-27 02:01:00,
2013-05-26 21:32:00,53.0,43.0,-100.00,SSE,159,7.0,16.0,70,0.00,,,0.00,2.000000,,2013-05-27 02:32:00,
2013-05-26 21:43:00,53.0,43.0,-100.00,SSE,159,7.0,16.0,70,0.00,,,0.00,2.000000,,2013-05-27 02:43:00,
2013-05-26 21:52:00,53.0,43.0,-100.00,SSE,159,7.0,16.0,70,0.00,,,0.00,2.000000,,2013-05-27 02:52:00,
2013-05-26 22:02:00,53.0,43.0,-100.00,SSE,159,7.0,16.0,70,0.00,,,0.00,2.000000,,2013-05-27 03:02:00,
2013-05-26 22:33:00,54.0,44.0,-100.00,SE,143,7.0,13.0,69,0.01,,,0.01,0.000000,,2013-05-27 03:33:00,
2013-05-26 22:43:00,54.0,44.0,-100.00,SE,143,7.0,13.0,69,0.01,,,0.01,0.000000,,2013-05-27 03:43:00,
2013-05-26 22:53:00,54.0,44.0,-100.00,SE,143,7.0,13.0,69,0.01,,,0.01,0.000000,,2013-05-27 03:53:00,
2013-05-26 23:02:00,54.0,44.0,-100.00,SE,143,7.0,13.0,69,0.01,,,0.01,0.000000,,2013-05-27 04:02:00,
2013-05-26 23:33:00,53.0,45.0,-100.00,ESE,121,4.0,9.0,75,0.00,,,0.01,0.000000,,2013-05-27 04:33:00,
2013-05-26 23:43:00,53.0,45.0,-100.00,ESE,121,4.0,9.0,75,0.00,,,0.01,0.000000,,2013-05-27 04:43:00,
2013-05-26 23:52:00,53.0,45.0,-100.00,ESE,121,4.0,9.0,75,0.00,,,0.01,0.000000,,2013-05-27 04:52:00,